sensor_id;sensor_type;location;lat;lon;timestamp;temperature;humidity
28654;DHT22;24320;56.980;24.336;2023-04-24T00:01:26;10.20;99.90
28654;DHT22;24320;56.980;24.336;2023-04-24T00:03:53;10.20;99.90
28654;DHT22;24320;56.980;24.336;2023-04-24T00:06:20;10.10;99.90
28654;DHT22;24320;56.980;24.336;2023-04-24T00:08:50;10.10;99.90
28654;DHT22;24320;56.980;24.336;2023-04-24T00:11:17;10.00;99.90
28654;DHT22;24320;56.980;24.336;2023-04-24T00:13:44;10.00;99.90
28654;DHT22;24320;56.980;24.336;2023-04-24T00:16:11;9.90;99.90
28654;DHT22;24320;56.980;24.336;2023-04-24T00:18:38;9.90;99.90
28654;DHT22;24320;56.980;24.336;2023-04-24T00:21:07;10.00;99.90
28654;DHT22;24320;56.980;24.336;2023-04-24T00:23:34;10.00;99.90
28654;DHT22;24320;56.980;24.336;2023-04-24T00:26:01;9.90;99.90
28654;DHT22;24320;56.980;24.336;2023-04-24T00:28:28;9.80;99.90
28654;DHT22;24320;56.980;24.336;2023-04-24T00:30:55;9.80;99.90
28654;DHT22;24320;56.980;24.336;2023-04-24T00:33:22;9.80;99.90
28654;DHT22;24320;56.980;24.336;2023-04-24T00:35:49;9.70;99.90
28654;DHT22;24320;56.980;24.336;2023-04-24T00:38:16;9.70;99.90
28654;DHT22;24320;56.980;24.336;2023-04-24T00:40:43;9.60;99.90
28654;DHT22;24320;56.980;24.336;2023-04-24T00:43:11;9.60;99.90
28654;DHT22;24320;56.980;24.336;2023-04-24T00:45:38;9.60;99.90
28654;DHT22;24320;56.980;24.336;2023-04-24T00:48:06;9.60;99.90
28654;DHT22;24320;56.980;24.336;2023-04-24T00:50:36;9.60;99.90
28654;DHT22;24320;56.980;24.336;2023-04-24T00:53:03;9.60;99.90
28654;DHT22;24320;56.980;24.336;2023-04-24T00:55:30;9.60;99.90
28654;DHT22;24320;56.980;24.336;2023-04-24T00:57:59;9.60;99.90
28654;DHT22;24320;56.980;24.336;2023-04-24T01:00:26;9.60;99.90
28654;DHT22;24320;56.980;24.336;2023-04-24T01:02:53;9.60;99.90
28654;DHT22;24320;56.980;24.336;2023-04-24T01:05:22;9.60;99.90
28654;DHT22;24320;56.980;24.336;2023-04-24T01:07:49;9.60;99.90
28654;DHT22;24320;56.980;24.336;2023-04-24T01:10:16;9.60;99.90
28654;DHT22;24320;56.980;24.336;2023-04-24T01:12:44;9.50;99.90
28654;DHT22;24320;56.980;24.336;2023-04-24T01:15:12;9.50;99.90
28654;DHT22;24320;56.980;24.336;2023-04-24T01:17:39;9.40;99.90
28654;DHT22;24320;56.980;24.336;2023-04-24T01:20:06;9.40;99.90
28654;DHT22;24320;56.980;24.336;2023-04-24T01:22:34;9.30;99.90
28654;DHT22;24320;56.980;24.336;2023-04-24T01:25:02;9.20;99.90
28654;DHT22;24320;56.980;24.336;2023-04-24T01:27:30;9.10;99.90
28654;DHT22;24320;56.980;24.336;2023-04-24T01:29:57;9.10;99.90
28654;DHT22;24320;56.980;24.336;2023-04-24T01:32:25;9.10;99.90
28654;DHT22;24320;56.980;24.336;2023-04-24T01:34:52;9.10;99.90
28654;DHT22;24320;56.980;24.336;2023-04-24T01:37:19;9.10;99.90
28654;DHT22;24320;56.980;24.336;2023-04-24T01:39:47;9.10;99.90
28654;DHT22;24320;56.980;24.336;2023-04-24T01:42:14;9.10;99.90
28654;DHT22;24320;56.980;24.336;2023-04-24T01:44:41;9.20;99.90
28654;DHT22;24320;56.980;24.336;2023-04-24T01:47:09;9.30;99.90
28654;DHT22;24320;56.980;24.336;2023-04-24T01:49:38;9.40;99.90
28654;DHT22;24320;56.980;24.336;2023-04-24T01:52:05;9.40;99.90
28654;DHT22;24320;56.980;24.336;2023-04-24T01:54:32;9.50;99.90
28654;DHT22;24320;56.980;24.336;2023-04-24T01:56:59;9.50;99.90
28654;DHT22;24320;56.980;24.336;2023-04-24T01:59:28;9.40;99.90
28654;DHT22;24320;56.980;24.336;2023-04-24T02:01:55;9.40;99.90
28654;DHT22;24320;56.980;24.336;2023-04-24T02:04:22;9.40;99.90
28654;DHT22;24320;56.980;24.336;2023-04-24T02:06:49;9.40;99.90
28654;DHT22;24320;56.980;24.336;2023-04-24T02:09:16;9.40;99.90
28654;DHT22;24320;56.980;24.336;2023-04-24T02:11:43;9.30;99.90
28654;DHT22;24320;56.980;24.336;2023-04-24T02:14:10;9.30;99.90
28654;DHT22;24320;56.980;24.336;2023-04-24T02:16:37;9.40;99.90
28654;DHT22;24320;56.980;24.336;2023-04-24T02:19:04;9.50;99.90
28654;DHT22;24320;56.980;24.336;2023-04-24T02:21:31;9.50;99.90
28654;DHT22;24320;56.980;24.336;2023-04-24T02:23:59;9.60;99.90
28654;DHT22;24320;56.980;24.336;2023-04-24T02:26:26;9.60;99.90
28654;DHT22;24320;56.980;24.336;2023-04-24T02:28:53;9.50;99.90
28654;DHT22;24320;56.980;24.336;2023-04-24T02:31:20;9.50;99.90
28654;DHT22;24320;56.980;24.336;2023-04-24T02:33:47;9.50;99.90
28654;DHT22;24320;56.980;24.336;2023-04-24T02:36:14;9.50;99.90
28654;DHT22;24320;56.980;24.336;2023-04-24T02:38:41;9.40;99.90
28654;DHT22;24320;56.980;24.336;2023-04-24T02:41:08;9.40;99.90
28654;DHT22;24320;56.980;24.336;2023-04-24T02:43:35;9.40;99.90
28654;DHT22;24320;56.980;24.336;2023-04-24T02:46:02;9.40;99.90
28654;DHT22;24320;56.980;24.336;2023-04-24T02:48:29;9.40;99.90
28654;DHT22;24320;56.980;24.336;2023-04-24T02:50:56;9.40;99.90
28654;DHT22;24320;56.980;24.336;2023-04-24T02:53:24;9.30;99.90
28654;DHT22;24320;56.980;24.336;2023-04-24T02:55:51;9.30;99.90
28654;DHT22;24320;56.980;24.336;2023-04-24T02:58:18;9.30;99.90
28654;DHT22;24320;56.980;24.336;2023-04-24T03:00:46;9.20;99.90
28654;DHT22;24320;56.980;24.336;2023-04-24T03:03:14;9.20;99.90
28654;DHT22;24320;56.980;24.336;2023-04-24T03:05:42;9.20;99.90
28654;DHT22;24320;56.980;24.336;2023-04-24T03:08:09;9.20;99.90
28654;DHT22;24320;56.980;24.336;2023-04-24T03:10:37;9.20;99.90
28654;DHT22;24320;56.980;24.336;2023-04-24T03:13:04;9.10;99.90
28654;DHT22;24320;56.980;24.336;2023-04-24T03:15:31;9.20;99.90
28654;DHT22;24320;56.980;24.336;2023-04-24T03:17:58;9.20;99.90
28654;DHT22;24320;56.980;24.336;2023-04-24T03:20:27;9.30;99.90
28654;DHT22;24320;56.980;24.336;2023-04-24T03:22:54;9.30;99.90
28654;DHT22;24320;56.980;24.336;2023-04-24T03:25:21;9.30;99.90
28654;DHT22;24320;56.980;24.336;2023-04-24T03:27:48;9.40;99.90
28654;DHT22;24320;56.980;24.336;2023-04-24T03:30:15;9.40;99.90
28654;DHT22;24320;56.980;24.336;2023-04-24T03:32:43;9.50;99.90
28654;DHT22;24320;56.980;24.336;2023-04-24T03:35:10;9.50;99.90
28654;DHT22;24320;56.980;24.336;2023-04-24T03:37:37;9.60;99.90
28654;DHT22;24320;56.980;24.336;2023-04-24T03:40:05;9.70;99.90
28654;DHT22;24320;56.980;24.336;2023-04-24T03:42:32;9.80;99.90
28654;DHT22;24320;56.980;24.336;2023-04-24T03:44:59;10.10;99.90
28654;DHT22;24320;56.980;24.336;2023-04-24T03:47:26;10.50;99.90
28654;DHT22;24320;56.980;24.336;2023-04-24T03:49:53;11.00;99.90
28654;DHT22;24320;56.980;24.336;2023-04-24T03:52:22;11.50;99.90
28654;DHT22;24320;56.980;24.336;2023-04-24T03:54:49;12.00;99.90
28654;DHT22;24320;56.980;24.336;2023-04-24T03:57:19;12.50;99.90
28654;DHT22;24320;56.980;24.336;2023-04-24T03:59:46;12.90;99.90
28654;DHT22;24320;56.980;24.336;2023-04-24T04:02:13;13.30;99.90
28654;DHT22;24320;56.980;24.336;2023-04-24T04:04:40;13.70;99.90
28654;DHT22;24320;56.980;24.336;2023-04-24T04:07:07;13.90;99.90
28654;DHT22;24320;56.980;24.336;2023-04-24T04:09:35;14.20;99.90
28654;DHT22;24320;56.980;24.336;2023-04-24T04:12:02;14.40;99.90
28654;DHT22;24320;56.980;24.336;2023-04-24T04:14:29;14.70;99.90
28654;DHT22;24320;56.980;24.336;2023-04-24T04:16:56;15.00;99.90
28654;DHT22;24320;56.980;24.336;2023-04-24T04:19:23;15.20;99.90
28654;DHT22;24320;56.980;24.336;2023-04-24T04:21:50;15.50;99.60
28654;DHT22;24320;56.980;24.336;2023-04-24T04:24:20;15.80;98.70
28654;DHT22;24320;56.980;24.336;2023-04-24T04:26:51;15.90;97.40
28654;DHT22;24320;56.980;24.336;2023-04-24T04:29:18;16.10;97.50
28654;DHT22;24320;56.980;24.336;2023-04-24T04:31:45;16.20;96.40
28654;DHT22;24320;56.980;24.336;2023-04-24T04:34:13;16.30;96.30
28654;DHT22;24320;56.980;24.336;2023-04-24T04:36:41;16.50;95.40
28654;DHT22;24320;56.980;24.336;2023-04-24T04:39:08;16.60;95.00
28654;DHT22;24320;56.980;24.336;2023-04-24T04:41:35;16.90;94.40
28654;DHT22;24320;56.980;24.336;2023-04-24T04:44:02;17.20;93.50
28654;DHT22;24320;56.980;24.336;2023-04-24T04:46:31;17.20;92.60
28654;DHT22;24320;56.980;24.336;2023-04-24T04:49:04;17.20;93.60
28654;DHT22;24320;56.980;24.336;2023-04-24T04:51:31;17.30;92.40
28654;DHT22;24320;56.980;24.336;2023-04-24T04:53:58;17.40;92.00
28654;DHT22;24320;56.980;24.336;2023-04-24T04:56:26;17.60;91.50
28654;DHT22;24320;56.980;24.336;2023-04-24T04:58:53;17.90;91.40
28654;DHT22;24320;56.980;24.336;2023-04-24T05:01:20;18.30;91.40
28654;DHT22;24320;56.980;24.336;2023-04-24T05:03:49;18.80;89.60
28654;DHT22;24320;56.980;24.336;2023-04-24T05:06:17;19.20;89.70
28654;DHT22;24320;56.980;24.336;2023-04-24T05:08:44;19.50;85.90
28654;DHT22;24320;56.980;24.336;2023-04-24T05:11:11;19.50;83.20
28654;DHT22;24320;56.980;24.336;2023-04-24T05:13:38;19.50;83.60
28654;DHT22;24320;56.980;24.336;2023-04-24T05:16:07;19.70;83.70
28654;DHT22;24320;56.980;24.336;2023-04-24T05:18:34;20.00;81.80
28654;DHT22;24320;56.980;24.336;2023-04-24T05:21:01;20.50;81.80
28654;DHT22;24320;56.980;24.336;2023-04-24T05:23:28;20.70;79.60
28654;DHT22;24320;56.980;24.336;2023-04-24T05:25:55;20.70;78.70
28654;DHT22;24320;56.980;24.336;2023-04-24T05:28:22;20.70;77.40
28654;DHT22;24320;56.980;24.336;2023-04-24T05:30:49;20.80;78.20
28654;DHT22;24320;56.980;24.336;2023-04-24T05:33:16;20.80;76.50
28654;DHT22;24320;56.980;24.336;2023-04-24T05:35:50;20.90;75.50
28654;DHT22;24320;56.980;24.336;2023-04-24T05:38:17;21.00;75.20
28654;DHT22;24320;56.980;24.336;2023-04-24T05:40:46;21.00;73.70
28654;DHT22;24320;56.980;24.336;2023-04-24T05:43:13;21.30;73.90
28654;DHT22;24320;56.980;24.336;2023-04-24T05:45:40;21.40;72.10
28654;DHT22;24320;56.980;24.336;2023-04-24T05:48:07;21.10;70.20
28654;DHT22;24320;56.980;24.336;2023-04-24T05:50:34;20.90;73.00
28654;DHT22;24320;56.980;24.336;2023-04-24T05:53:03;20.80;74.00
28654;DHT22;24320;56.980;24.336;2023-04-24T05:55:31;20.60;72.60
28654;DHT22;24320;56.980;24.336;2023-04-24T05:57:58;20.60;73.80
28654;DHT22;24320;56.980;24.336;2023-04-24T06:00:25;20.70;75.10
28654;DHT22;24320;56.980;24.336;2023-04-24T06:02:53;21.00;74.10
28654;DHT22;24320;56.980;24.336;2023-04-24T06:05:21;21.30;72.80
28654;DHT22;24320;56.980;24.336;2023-04-24T06:07:48;21.40;72.60
28654;DHT22;24320;56.980;24.336;2023-04-24T06:10:15;21.30;73.70
28654;DHT22;24320;56.980;24.336;2023-04-24T06:12:42;21.00;71.60
28654;DHT22;24320;56.980;24.336;2023-04-24T06:15:10;20.70;69.70
28654;DHT22;24320;56.980;24.336;2023-04-24T06:17:37;20.70;73.20
28654;DHT22;24320;56.980;24.336;2023-04-24T06:20:05;20.80;74.20
28654;DHT22;24320;56.980;24.336;2023-04-24T06:22:33;20.90;73.80
28654;DHT22;24320;56.980;24.336;2023-04-24T06:25:02;20.90;72.60
28654;DHT22;24320;56.980;24.336;2023-04-24T06:27:29;20.70;74.20
28654;DHT22;24320;56.980;24.336;2023-04-24T06:29:57;20.70;75.10
28654;DHT22;24320;56.980;24.336;2023-04-24T06:32:24;21.00;74.60
28654;DHT22;24320;56.980;24.336;2023-04-24T06:34:52;21.20;74.40
28654;DHT22;24320;56.980;24.336;2023-04-24T06:37:22;21.60;77.20
28654;DHT22;24320;56.980;24.336;2023-04-24T06:39:49;21.70;71.90
28654;DHT22;24320;56.980;24.336;2023-04-24T06:42:17;21.70;71.70
28654;DHT22;24320;56.980;24.336;2023-04-24T06:44:46;21.80;73.00
28654;DHT22;24320;56.980;24.336;2023-04-24T06:47:13;21.60;72.10
28654;DHT22;24320;56.980;24.336;2023-04-24T06:49:40;21.50;71.80
28654;DHT22;24320;56.980;24.336;2023-04-24T06:52:10;21.80;73.30
28654;DHT22;24320;56.980;24.336;2023-04-24T06:54:38;21.90;71.40
28654;DHT22;24320;56.980;24.336;2023-04-24T06:57:05;21.70;70.40
28654;DHT22;24320;56.980;24.336;2023-04-24T06:59:33;21.60;72.00
28654;DHT22;24320;56.980;24.336;2023-04-24T07:02:00;21.80;71.80
28654;DHT22;24320;56.980;24.336;2023-04-24T07:04:27;21.90;68.70
28654;DHT22;24320;56.980;24.336;2023-04-24T07:06:55;21.50;67.80
28654;DHT22;24320;56.980;24.336;2023-04-24T07:09:27;21.00;70.40
28654;DHT22;24320;56.980;24.336;2023-04-24T07:11:54;20.60;73.50
28654;DHT22;24320;56.980;24.336;2023-04-24T07:14:23;20.10;72.00
28654;DHT22;24320;56.980;24.336;2023-04-24T07:16:50;19.70;73.80
28654;DHT22;24320;56.980;24.336;2023-04-24T07:19:17;19.30;75.40
28654;DHT22;24320;56.980;24.336;2023-04-24T07:21:44;19.10;75.90
28654;DHT22;24320;56.980;24.336;2023-04-24T07:24:12;19.10;78.60
28654;DHT22;24320;56.980;24.336;2023-04-24T07:26:39;19.50;79.00
28654;DHT22;24320;56.980;24.336;2023-04-24T07:29:07;19.50;78.80
28654;DHT22;24320;56.980;24.336;2023-04-24T07:31:34;19.70;78.30
28654;DHT22;24320;56.980;24.336;2023-04-24T07:34:02;19.90;76.50
28654;DHT22;24320;56.980;24.336;2023-04-24T07:36:29;19.90;78.00
28654;DHT22;24320;56.980;24.336;2023-04-24T07:38:56;19.90;76.50
28654;DHT22;24320;56.980;24.336;2023-04-24T07:41:23;20.00;75.80
28654;DHT22;24320;56.980;24.336;2023-04-24T07:43:51;20.20;78.90
28654;DHT22;24320;56.980;24.336;2023-04-24T07:46:19;20.10;78.20
28654;DHT22;24320;56.980;24.336;2023-04-24T07:48:47;20.10;77.20
28654;DHT22;24320;56.980;24.336;2023-04-24T07:51:30;19.90;77.50
28654;DHT22;24320;56.980;24.336;2023-04-24T07:53:58;19.70;77.10
28654;DHT22;24320;56.980;24.336;2023-04-24T07:56:25;19.50;77.70
28654;DHT22;24320;56.980;24.336;2023-04-24T07:58:53;19.30;80.00
28654;DHT22;24320;56.980;24.336;2023-04-24T08:01:20;19.30;80.60
28654;DHT22;24320;56.980;24.336;2023-04-24T08:03:47;19.30;80.40
28654;DHT22;24320;56.980;24.336;2023-04-24T08:06:15;19.30;80.10
28654;DHT22;24320;56.980;24.336;2023-04-24T08:08:42;19.30;80.50
28654;DHT22;24320;56.980;24.336;2023-04-24T08:11:09;19.10;78.30
28654;DHT22;24320;56.980;24.336;2023-04-24T08:13:36;19.10;78.40
28654;DHT22;24320;56.980;24.336;2023-04-24T08:16:03;19.00;76.90
28654;DHT22;24320;56.980;24.336;2023-04-24T08:18:30;18.90;80.30
28654;DHT22;24320;56.980;24.336;2023-04-24T08:20:57;18.70;81.00
28654;DHT22;24320;56.980;24.336;2023-04-24T08:23:28;18.60;82.90
28654;DHT22;24320;56.980;24.336;2023-04-24T08:25:56;18.60;83.80
28654;DHT22;24320;56.980;24.336;2023-04-24T08:28:24;18.70;84.00
28654;DHT22;24320;56.980;24.336;2023-04-24T08:30:52;18.90;81.80
28654;DHT22;24320;56.980;24.336;2023-04-24T08:33:24;19.20;82.40
28654;DHT22;24320;56.980;24.336;2023-04-24T08:35:51;19.30;82.20
28654;DHT22;24320;56.980;24.336;2023-04-24T08:38:19;19.20;82.90
28654;DHT22;24320;56.980;24.336;2023-04-24T08:40:47;19.30;81.40
28654;DHT22;24320;56.980;24.336;2023-04-24T08:43:16;19.30;78.60
28654;DHT22;24320;56.980;24.336;2023-04-24T08:45:43;19.30;81.70
28654;DHT22;24320;56.980;24.336;2023-04-24T08:48:11;19.40;80.00
28654;DHT22;24320;56.980;24.336;2023-04-24T08:50:53;19.50;80.00
28654;DHT22;24320;56.980;24.336;2023-04-24T08:53:20;19.60;80.40
28654;DHT22;24320;56.980;24.336;2023-04-24T08:55:48;19.60;81.40
28654;DHT22;24320;56.980;24.336;2023-04-24T08:58:17;19.70;81.50
28654;DHT22;24320;56.980;24.336;2023-04-24T09:00:45;19.70;80.00
28654;DHT22;24320;56.980;24.336;2023-04-24T09:03:16;19.90;77.60
28654;DHT22;24320;56.980;24.336;2023-04-24T09:05:46;19.80;78.50
28654;DHT22;24320;56.980;24.336;2023-04-24T09:08:14;20.00;81.80
28654;DHT22;24320;56.980;24.336;2023-04-24T09:10:43;20.10;79.60
28654;DHT22;24320;56.980;24.336;2023-04-24T09:13:10;20.20;79.40
28654;DHT22;24320;56.980;24.336;2023-04-24T09:15:38;20.20;80.10
28654;DHT22;24320;56.980;24.336;2023-04-24T09:18:05;20.30;81.00
28654;DHT22;24320;56.980;24.336;2023-04-24T09:20:33;20.30;78.50
28654;DHT22;24320;56.980;24.336;2023-04-24T09:23:02;20.40;79.40
28654;DHT22;24320;56.980;24.336;2023-04-24T09:25:34;20.40;78.40
28654;DHT22;24320;56.980;24.336;2023-04-24T09:28:04;20.40;80.80
28654;DHT22;24320;56.980;24.336;2023-04-24T09:30:33;20.80;81.30
28654;DHT22;24320;56.980;24.336;2023-04-24T09:33:12;21.10;78.30
28654;DHT22;24320;56.980;24.336;2023-04-24T09:35:48;21.40;77.80
28654;DHT22;24320;56.980;24.336;2023-04-24T09:38:15;21.40;78.80
28654;DHT22;24320;56.980;24.336;2023-04-24T09:40:42;21.30;75.30
28654;DHT22;24320;56.980;24.336;2023-04-24T09:43:13;21.30;78.30
28654;DHT22;24320;56.980;24.336;2023-04-24T09:48:11;21.40;74.80
28654;DHT22;24320;56.980;24.336;2023-04-24T09:50:38;21.40;78.10
28654;DHT22;24320;56.980;24.336;2023-04-24T09:53:06;21.50;74.80
28654;DHT22;24320;56.980;24.336;2023-04-24T09:55:45;21.50;77.00
28654;DHT22;24320;56.980;24.336;2023-04-24T09:58:12;21.60;76.70
28654;DHT22;24320;56.980;24.336;2023-04-24T10:00:40;21.60;75.30
28654;DHT22;24320;56.980;24.336;2023-04-24T10:03:07;21.50;73.60
28654;DHT22;24320;56.980;24.336;2023-04-24T10:05:36;21.40;76.50
28654;DHT22;24320;56.980;24.336;2023-04-24T10:08:08;21.20;76.40
28654;DHT22;24320;56.980;24.336;2023-04-24T10:10:42;21.10;76.80
28654;DHT22;24320;56.980;24.336;2023-04-24T10:13:10;21.10;75.90
28654;DHT22;24320;56.980;24.336;2023-04-24T10:15:38;21.10;75.70
28654;DHT22;24320;56.980;24.336;2023-04-24T10:18:07;21.30;78.10
28654;DHT22;24320;56.980;24.336;2023-04-24T10:20:36;21.50;75.80
28654;DHT22;24320;56.980;24.336;2023-04-24T10:23:04;21.50;75.20
28654;DHT22;24320;56.980;24.336;2023-04-24T10:25:34;21.50;75.70
28654;DHT22;24320;56.980;24.336;2023-04-24T10:28:02;21.50;76.20
28654;DHT22;24320;56.980;24.336;2023-04-24T10:30:33;21.70;75.20
28654;DHT22;24320;56.980;24.336;2023-04-24T10:33:06;21.90;72.70
28654;DHT22;24320;56.980;24.336;2023-04-24T10:35:39;22.00;73.40
28654;DHT22;24320;56.980;24.336;2023-04-24T10:38:11;22.00;71.90
28654;DHT22;24320;56.980;24.336;2023-04-24T10:40:39;22.00;72.90
28654;DHT22;24320;56.980;24.336;2023-04-24T10:43:07;22.00;72.10
28654;DHT22;24320;56.980;24.336;2023-04-24T10:45:38;22.00;69.50
28654;DHT22;24320;56.980;24.336;2023-04-24T10:48:07;21.90;73.90
28654;DHT22;24320;56.980;24.336;2023-04-24T10:53:18;22.00;71.20
28654;DHT22;24320;56.980;24.336;2023-04-24T10:58:59;22.40;71.40
28654;DHT22;24320;56.980;24.336;2023-04-24T11:04:02;22.80;72.50
28654;DHT22;24320;56.980;24.336;2023-04-24T11:06:37;22.90;70.70
28654;DHT22;24320;56.980;24.336;2023-04-24T11:09:08;22.80;70.80
28654;DHT22;24320;56.980;24.336;2023-04-24T11:11:37;22.60;67.40
28654;DHT22;24320;56.980;24.336;2023-04-24T11:14:07;22.50;69.70
28654;DHT22;24320;56.980;24.336;2023-04-24T11:19:08;22.50;71.40
28654;DHT22;24320;56.980;24.336;2023-04-24T11:21:40;22.60;70.10
28654;DHT22;24320;56.980;24.336;2023-04-24T11:29:42;22.30;68.50
28654;DHT22;24320;56.980;24.336;2023-04-24T11:35:05;21.80;70.20
28654;DHT22;24320;56.980;24.336;2023-04-24T11:37:38;21.50;69.20
28654;DHT22;24320;56.980;24.336;2023-04-24T11:40:08;21.40;68.80
28654;DHT22;24320;56.980;24.336;2023-04-24T11:42:40;21.20;69.90
28654;DHT22;24320;56.980;24.336;2023-04-24T11:45:09;21.00;70.60
28654;DHT22;24320;56.980;24.336;2023-04-24T11:47:37;20.90;72.50
28654;DHT22;24320;56.980;24.336;2023-04-24T11:50:07;20.80;72.70
28654;DHT22;24320;56.980;24.336;2023-04-24T11:52:39;20.70;73.40
28654;DHT22;24320;56.980;24.336;2023-04-24T11:57:53;20.50;71.80
28654;DHT22;24320;56.980;24.336;2023-04-24T12:00:23;20.30;73.50
28654;DHT22;24320;56.980;24.336;2023-04-24T12:02:51;20.20;72.70
28654;DHT22;24320;56.980;24.336;2023-04-24T12:05:26;20.10;73.90
28654;DHT22;24320;56.980;24.336;2023-04-24T12:07:54;20.10;74.20
28654;DHT22;24320;56.980;24.336;2023-04-24T12:10:28;20.00;73.10
28654;DHT22;24320;56.980;24.336;2023-04-24T12:12:56;20.00;74.70
28654;DHT22;24320;56.980;24.336;2023-04-24T12:15:24;20.00;73.80
28654;DHT22;24320;56.980;24.336;2023-04-24T12:17:53;19.90;74.70
28654;DHT22;24320;56.980;24.336;2023-04-24T12:20:32;19.90;75.50
28654;DHT22;24320;56.980;24.336;2023-04-24T12:23:01;19.90;75.30
28654;DHT22;24320;56.980;24.336;2023-04-24T12:25:29;20.00;75.40
28654;DHT22;24320;56.980;24.336;2023-04-24T12:30:43;20.10;77.70
28654;DHT22;24320;56.980;24.336;2023-04-24T12:33:18;20.30;76.00
28654;DHT22;24320;56.980;24.336;2023-04-24T12:35:48;20.50;75.30
28654;DHT22;24320;56.980;24.336;2023-04-24T12:38:16;20.50;75.00
28654;DHT22;24320;56.980;24.336;2023-04-24T12:40:44;20.70;75.80
28654;DHT22;24320;56.980;24.336;2023-04-24T12:43:14;20.80;74.70
28654;DHT22;24320;56.980;24.336;2023-04-24T12:45:42;21.00;73.60
28654;DHT22;24320;56.980;24.336;2023-04-24T12:48:09;21.30;73.90
28654;DHT22;24320;56.980;24.336;2023-04-24T12:50:38;21.50;72.10
28654;DHT22;24320;56.980;24.336;2023-04-24T12:53:07;21.60;72.10
28654;DHT22;24320;56.980;24.336;2023-04-24T12:55:36;21.60;73.10
28654;DHT22;24320;56.980;24.336;2023-04-24T12:58:04;21.60;74.70
28654;DHT22;24320;56.980;24.336;2023-04-24T13:00:31;21.80;74.50
28654;DHT22;24320;56.980;24.336;2023-04-24T13:02:58;21.70;72.80
28654;DHT22;24320;56.980;24.336;2023-04-24T13:05:26;21.40;73.90
28654;DHT22;24320;56.980;24.336;2023-04-24T13:07:53;21.20;74.50
28654;DHT22;24320;56.980;24.336;2023-04-24T13:10:20;21.20;76.50
28654;DHT22;24320;56.980;24.336;2023-04-24T13:12:47;21.10;75.70
28654;DHT22;24320;56.980;24.336;2023-04-24T13:15:14;21.00;75.50
28654;DHT22;24320;56.980;24.336;2023-04-24T13:17:41;21.00;75.00
28654;DHT22;24320;56.980;24.336;2023-04-24T13:20:08;20.90;76.40
28654;DHT22;24320;56.980;24.336;2023-04-24T13:22:36;21.10;75.00
28654;DHT22;24320;56.980;24.336;2023-04-24T13:25:03;21.10;74.90
28654;DHT22;24320;56.980;24.336;2023-04-24T13:27:32;21.10;75.60
28654;DHT22;24320;56.980;24.336;2023-04-24T13:30:00;21.10;76.40
28654;DHT22;24320;56.980;24.336;2023-04-24T13:32:27;21.20;76.50
28654;DHT22;24320;56.980;24.336;2023-04-24T13:34:56;21.40;74.20
28654;DHT22;24320;56.980;24.336;2023-04-24T13:37:23;21.70;72.80
28654;DHT22;24320;56.980;24.336;2023-04-24T13:39:50;21.80;72.30
28654;DHT22;24320;56.980;24.336;2023-04-24T13:42:18;21.90;72.30
28654;DHT22;24320;56.980;24.336;2023-04-24T13:44:46;22.00;72.10
28654;DHT22;24320;56.980;24.336;2023-04-24T13:47:13;21.90;71.10
28654;DHT22;24320;56.980;24.336;2023-04-24T13:49:40;22.00;72.40
28654;DHT22;24320;56.980;24.336;2023-04-24T13:52:07;22.10;71.70
28654;DHT22;24320;56.980;24.336;2023-04-24T13:54:34;22.00;70.00
28654;DHT22;24320;56.980;24.336;2023-04-24T13:57:02;21.80;71.20
28654;DHT22;24320;56.980;24.336;2023-04-24T13:59:30;21.80;73.00
28654;DHT22;24320;56.980;24.336;2023-04-24T14:01:57;21.90;74.20
28654;DHT22;24320;56.980;24.336;2023-04-24T14:04:24;22.00;72.20
28654;DHT22;24320;56.980;24.336;2023-04-24T14:06:52;21.80;73.80
28654;DHT22;24320;56.980;24.336;2023-04-24T14:09:19;21.50;73.20
28654;DHT22;24320;56.980;24.336;2023-04-24T14:11:46;21.10;74.90
28654;DHT22;24320;56.980;24.336;2023-04-24T14:14:13;20.70;76.30
28654;DHT22;24320;56.980;24.336;2023-04-24T14:16:40;20.40;77.00
28654;DHT22;24320;56.980;24.336;2023-04-24T14:19:07;20.10;77.30
28654;DHT22;24320;56.980;24.336;2023-04-24T14:21:34;19.90;78.40
28654;DHT22;24320;56.980;24.336;2023-04-24T14:24:02;19.70;79.60
28654;DHT22;24320;56.980;24.336;2023-04-24T14:26:29;19.70;80.00
28654;DHT22;24320;56.980;24.336;2023-04-24T14:28:56;19.60;80.00
28654;DHT22;24320;56.980;24.336;2023-04-24T14:31:40;19.60;80.40
28654;DHT22;24320;56.980;24.336;2023-04-24T14:34:07;19.60;80.40
28654;DHT22;24320;56.980;24.336;2023-04-24T14:36:34;19.60;80.80
28654;DHT22;24320;56.980;24.336;2023-04-24T14:39:01;19.80;81.30
28654;DHT22;24320;56.980;24.336;2023-04-24T14:41:33;20.00;81.30
28654;DHT22;24320;56.980;24.336;2023-04-24T14:44:04;20.20;79.10
28654;DHT22;24320;56.980;24.336;2023-04-24T14:46:31;20.30;78.10
28654;DHT22;24320;56.980;24.336;2023-04-24T14:48:59;20.30;77.30
28654;DHT22;24320;56.980;24.336;2023-04-24T14:51:26;20.40;79.50
28654;DHT22;24320;56.980;24.336;2023-04-24T14:53:53;20.50;78.10
28654;DHT22;24320;56.980;24.336;2023-04-24T14:56:20;20.50;77.50
28654;DHT22;24320;56.980;24.336;2023-04-24T14:58:47;20.50;78.40
28654;DHT22;24320;56.980;24.336;2023-04-24T15:01:14;20.50;78.30
28654;DHT22;24320;56.980;24.336;2023-04-24T15:03:43;20.50;77.20
28654;DHT22;24320;56.980;24.336;2023-04-24T15:06:12;20.50;79.90
28654;DHT22;24320;56.980;24.336;2023-04-24T15:08:39;20.60;79.30
28654;DHT22;24320;56.980;24.336;2023-04-24T15:11:06;20.60;78.90
28654;DHT22;24320;56.980;24.336;2023-04-24T15:13:33;20.50;79.60
28654;DHT22;24320;56.980;24.336;2023-04-24T15:16:00;20.30;80.70
28654;DHT22;24320;56.980;24.336;2023-04-24T15:18:28;20.30;80.70
28654;DHT22;24320;56.980;24.336;2023-04-24T15:20:56;20.10;82.40
28654;DHT22;24320;56.980;24.336;2023-04-24T15:23:23;20.00;84.20
28654;DHT22;24320;56.980;24.336;2023-04-24T15:25:50;19.90;83.50
28654;DHT22;24320;56.980;24.336;2023-04-24T15:28:17;19.80;82.60
28654;DHT22;24320;56.980;24.336;2023-04-24T15:30:44;19.80;83.80
28654;DHT22;24320;56.980;24.336;2023-04-24T15:33:11;19.70;85.00
28654;DHT22;24320;56.980;24.336;2023-04-24T15:35:39;19.50;85.60
28654;DHT22;24320;56.980;24.336;2023-04-24T15:38:06;19.40;86.60
28654;DHT22;24320;56.980;24.336;2023-04-24T15:40:34;19.30;86.90
28654;DHT22;24320;56.980;24.336;2023-04-24T15:43:01;19.20;84.60
28654;DHT22;24320;56.980;24.336;2023-04-24T15:45:28;19.20;83.40
28654;DHT22;24320;56.980;24.336;2023-04-24T15:47:55;19.20;82.50
28654;DHT22;24320;56.980;24.336;2023-04-24T15:50:22;19.20;79.10
28654;DHT22;24320;56.980;24.336;2023-04-24T15:52:50;19.20;79.90